Time;durP1;ratioP1;P1;durP2;ratioP2;P2;SDS_P1;SDS_P2;PMS_P1;PMS_P2;Temp;Humidity;BMP_temperature;BMP_pressure;BME280_temperature;BME280_humidity;BME280_pressure;Samples;Min_cycle;Max_cycle;Signal;HPM_P1;HPM_P2
2021/05/27 00:00:34;;;;;;;4.40;1.30;;;;;;;4.24;100.00;100060.78;4824942;29;20113;-80
2021/05/27 00:03:38;;;;;;;2.00;1.63;;;;;;;4.22;100.00;100058.41;4824399;29;20069;-80
2021/05/27 00:06:41;;;;;;;3.90;2.17;;;;;;;4.20;100.00;100057.31;4819514;29;20042;-81
2021/05/27 00:09:44;;;;;;;2.28;2.13;;;;;;;4.13;100.00;100055.50;4806173;29;20049;-80
2021/05/27 00:12:48;;;;;;;2.88;2.35;;;;;;;4.07;100.00;100056.44;4806152;29;20069;-81
2021/05/27 00:15:52;;;;;;;2.20;2.00;;;;;;;4.02;100.00;100060.47;4806217;29;20065;-81
2021/05/27 00:18:55;;;;;;;2.00;1.83;;;;;;;3.93;100.00;100057.50;4806180;29;20034;-81
2021/05/27 00:21:59;;;;;;;2.53;2.00;;;;;;;3.92;100.00;100066.94;4794855;29;20504;-81
2021/05/27 00:25:03;;;;;;;4.65;1.38;;;;;;;3.90;100.00;100066.59;4805983;29;20046;-82
2021/05/27 00:28:06;;;;;;;1.73;1.63;;;;;;;3.87;100.00;100074.94;4805303;29;20046;-81
2021/05/27 00:31:12;;;;;;;1.58;1.45;;;;;;;3.80;100.00;100078.63;4805963;29;20046;-81
2021/05/27 00:34:15;;;;;;;1.98;1.60;;;;;;;3.71;100.00;100079.19;4805729;29;20062;-81
2021/05/27 00:37:19;;;;;;;1.85;1.75;;;;;;;3.62;100.00;100080.94;4805816;29;20045;-81
2021/05/27 00:40:22;;;;;;;1.63;1.40;;;;;;;3.54;100.00;100090.53;4806018;29;20049;-80
2021/05/27 00:43:25;;;;;;;3.45;2.20;;;;;;;3.48;100.00;100087.50;4805746;29;20050;-81
2021/05/27 00:46:29;;;;;;;3.05;2.47;;;;;;;3.45;100.00;100090.31;4794722;29;20519;-81
2021/05/27 00:49:32;;;;;;;3.15;1.90;;;;;;;3.45;100.00;100098.56;4805636;29;20046;-80
2021/05/27 00:52:36;;;;;;;2.13;2.03;;;;;;;3.41;100.00;100097.88;4805678;29;20050;-81
2021/05/27 00:55:40;;;;;;;1.98;1.70;;;;;;;3.35;100.00;100097.59;4794103;29;20511;-81
2021/05/27 00:58:43;;;;;;;6.13;2.05;;;;;;;3.37;100.00;100097.16;4805315;29;20511;-81
2021/05/27 01:01:52;;;;;;;1.63;1.52;;;;;;;3.38;100.00;100099.47;4805498;29;20051;-81
2021/05/27 01:04:56;;;;;;;1.60;1.52;;;;;;;3.37;100.00;100103.44;4805499;29;20042;-81
2021/05/27 01:07:59;;;;;;;1.42;1.27;;;;;;;3.40;100.00;100107.34;4819929;29;20558;-81
2021/05/27 01:11:04;;;;;;;1.75;1.65;;;;;;;3.38;100.00;100115.25;4823675;29;20049;-81
2021/05/27 01:15:27;;;;;;;3.38;1.63;;;;;;;3.37;100.00;100117.19;4823771;29;20042;-81
2021/05/27 01:17:42;;;;;;;1.85;1.17;;;;;;;3.34;100.00;100117.25;4823838;29;20514;-81
2021/05/27 01:20:47;;;;;;;2.30;1.40;;;;;;;3.34;100.00;100114.50;4823567;29;20042;-80
2021/05/27 01:23:51;;;;;;;6.22;2.03;;;;;;;3.30;100.00;100113.78;4823670;29;20041;-81
2021/05/27 01:26:55;;;;;;;2.75;1.92;;;;;;;3.32;100.00;100117.69;4802209;29;20046;-84
2021/05/27 01:29:58;;;;;;;4.90;2.25;;;;;;;3.30;100.00;100114.56;4824104;29;20050;-83
2021/05/27 01:33:02;;;;;;;3.55;1.63;;;;;;;3.28;100.00;100116.19;4824025;29;20045;-83
2021/05/27 01:36:06;;;;;;;3.03;1.42;;;;;;;3.27;100.00;100120.16;4812685;29;20045;-84
2021/05/27 01:39:09;;;;;;;2.42;2.22;;;;;;;3.25;100.00;100112.28;4825851;29;20033;-82
2021/05/27 01:42:14;;;;;;;2.35;1.38;;;;;;;3.24;100.00;100112.72;4826802;29;20046;-83
2021/05/27 01:45:18;;;;;;;1.45;1.35;;;;;;;3.18;100.00;100111.66;4826976;29;20045;-83
2021/05/27 01:48:21;;;;;;;3.58;2.60;;;;;;;3.11;100.00;100114.50;4826635;29;20053;-82
2021/05/27 01:51:25;;;;;;;5.35;2.72;;;;;;;3.05;100.00;100116.97;4826602;29;20061;-82
2021/05/27 01:54:28;;;;;;;1.45;1.45;;;;;;;3.02;100.00;100115.06;4815258;29;20053;-83
2021/05/27 01:57:31;;;;;;;6.85;3.13;;;;;;;2.98;100.00;100114.34;4815207;29;20041;-84
2021/05/27 02:00:36;;;;;;;1.98;1.88;;;;;;;2.97;100.00;100116.31;4815340;29;20050;-84
2021/05/27 02:03:39;;;;;;;1.67;1.58;;;;;;;2.91;100.00;100108.94;4825685;29;20045;-83
2021/05/27 02:06:42;;;;;;;1.33;1.33;;;;;;;2.91;100.00;100120.72;4810021;29;20413;-83
2021/05/27 02:09:46;;;;;;;7.63;1.67;;;;;;;2.91;100.00;100117.97;4808120;29;20065;-83
2021/05/27 02:12:49;;;;;;;1.83;1.73;;;;;;;2.95;100.00;100129.69;4797012;29;20050;-83
2021/05/27 02:15:52;;;;;;;1.77;1.67;;;;;;;3.01;100.00;100122.53;4808450;29;20054;-84
2021/05/27 02:18:55;;;;;;;3.72;2.22;;;;;;;3.07;100.00;100123.59;4796875;29;20046;-84
2021/05/27 02:21:59;;;;;;;4.78;2.47;;;;;;;3.07;100.00;100117.34;4796759;29;20514;-84
2021/05/27 02:25:04;;;;;;;4.15;1.00;;;;;;;3.07;100.00;100117.34;4808253;29;20057;-84
2021/05/27 02:28:07;;;;;;;2.38;2.17;;;;;;;3.05;100.00;100108.72;4808093;29;20050;-84
2021/05/27 02:31:11;;;;;;;8.43;2.35;;;;;;;3.04;100.00;100115.41;4808244;29;20061;-76
2021/05/27 02:34:14;;;;;;;1.35;1.23;;;;;;;2.97;100.00;100113.56;4807782;29;20118;-81
2021/05/27 02:37:18;;;;;;;5.68;2.35;;;;;;;2.88;100.00;100118.03;4807772;29;20586;-80
2021/05/27 02:40:22;;;;;;;2.53;2.00;;;;;;;2.82;100.00;100116.94;4807822;29;20045;-80
2021/05/27 02:43:25;;;;;;;3.70;2.10;;;;;;;2.79;100.00;100124.06;4807663;29;20050;-81
2021/05/27 02:46:28;;;;;;;5.45;2.50;;;;;;;2.77;100.00;100114.69;4807532;29;20038;-81
2021/05/27 02:49:32;;;;;;;3.40;1.80;;;;;;;2.76;100.00;100122.16;4806992;29;20074;-80
2021/05/27 02:52:35;;;;;;;3.58;2.30;;;;;;;2.76;100.00;100124.09;4807340;29;20057;-81
2021/05/27 02:55:38;;;;;;;9.82;2.83;;;;;;;2.68;100.00;100126.19;4796116;29;20058;-80
2021/05/27 02:58:43;;;;;;;3.47;1.67;;;;;;;2.65;100.00;100132.53;4796076;29;20061;-81
2021/05/27 03:01:46;;;;;;;1.40;1.40;;;;;;;2.65;100.00;100129.78;4796120;29;20050;-81
2021/05/27 03:04:50;;;;;;;0.82;0.82;;;;;;;2.62;100.00;100136.09;4807327;29;20045;-80
2021/05/27 03:07:53;;;;;;;2.20;2.10;;;;;;;2.59;100.00;100142.44;4809542;29;20050;-80
2021/05/27 03:10:56;;;;;;;2.03;1.52;;;;;;;2.56;100.00;100147.97;4825345;29;20053;-80
2021/05/27 03:14:00;;;;;;;3.53;1.60;;;;;;;2.51;100.00;100156.69;4825107;29;20053;-81
2021/05/27 03:17:04;;;;;;;2.22;2.03;;;;;;;2.47;100.00;100151.22;4825016;29;20051;-80
2021/05/27 03:20:08;;;;;;;4.75;2.15;;;;;;;2.47;100.00;100161.47;4825078;29;20049;-81
2021/05/27 03:23:13;;;;;;;2.25;2.15;;;;;;;2.48;100.00;100155.53;4813572;29;20050;-80
2021/05/27 03:26:17;;;;;;;4.15;2.13;;;;;;;2.54;100.00;100162.13;4825025;29;20045;-81
2021/05/27 03:29:20;;;;;;;1.58;1.48;;;;;;;2.57;100.00;100153.06;4824935;29;20045;-80
2021/05/27 03:32:23;;;;;;;1.98;1.83;;;;;;;2.59;100.00;100158.13;4824842;29;20045;-80
2021/05/27 03:35:27;;;;;;;3.55;2.15;;;;;;;2.60;100.00;100171.47;4825024;29;20046;-80
2021/05/27 03:38:30;;;;;;;3.83;3.08;;;;;;;2.60;100.00;100174.22;4824881;29;20507;-80
2021/05/27 03:41:33;;;;;;;4.78;1.92;;;;;;;2.59;100.00;100174.63;4825002;29;20110;-80
2021/05/27 03:44:37;;;;;;;6.03;3.10;;;;;;;2.63;100.00;100164.38;4813529;29;20518;-80
2021/05/27 03:47:41;;;;;;;4.53;2.40;;;;;;;2.60;100.00;100171.47;4824716;29;20041;-80
2021/05/27 03:50:45;;;;;;;2.13;2.00;;;;;;;2.58;100.00;100182.09;4824736;29;20049;-80
2021/05/27 03:53:48;;;;;;;1.67;1.58;;;;;;;2.53;100.00;100176.28;4824715;29;20065;-80
2021/05/27 03:56:51;;;;;;;7.07;1.80;;;;;;;2.48;100.00;100169.28;4824619;29;20053;-80
2021/05/27 04:03:18;;;;;;;1.92;1.75;;;;;;;2.48;100.00;100180.28;4824080;29;20392;-80
2021/05/27 04:09:43;;;;;;;2.53;1.85;;;;;;;2.60;100.00;100190.72;4806178;29;20054;-81
2021/05/27 04:12:47;;;;;;;2.58;1.77;;;;;;;2.71;100.00;100194.09;4806026;29;20049;-81
2021/05/27 04:15:51;;;;;;;3.08;1.65;;;;;;;2.80;100.00;100194.38;4806097;29;20046;-81
2021/05/27 04:18:54;;;;;;;2.15;1.98;;;;;;;2.88;100.00;100197.81;4806036;29;20066;-81
2021/05/27 04:21:57;;;;;;;2.97;2.08;;;;;;;2.94;100.00;100191.41;4794735;29;20409;-80
2021/05/27 04:25:01;;;;;;;3.88;1.92;;;;;;;2.99;100.00;100198.41;4806073;29;20069;-81
2021/05/27 04:28:05;;;;;;;4.80;3.53;;;;;;;3.04;100.00;100206.97;4805687;29;20050;-81
2021/05/27 04:31:14;;;;;;;2.30;1.42;;;;;;;3.19;100.00;100202.03;4805791;29;20050;-80
2021/05/27 04:34:17;;;;;;;2.65;2.08;;;;;;;3.29;100.00;100211.31;4805736;29;20054;-80
2021/05/27 04:37:20;;;;;;;4.60;2.35;;;;;;;3.38;100.00;100208.81;4794983;29;20058;-80
2021/05/27 04:40:25;;;;;;;6.78;2.17;;;;;;;3.50;100.00;100210.97;4805995;29;20045;-80
2021/05/27 04:43:28;;;;;;;1.42;1.40;;;;;;;3.56;100.00;100210.06;4808255;29;20062;-79
2021/05/27 04:46:31;;;;;;;2.70;2.35;;;;;;;3.63;100.00;100203.66;4808096;29;20059;-80
2021/05/27 04:49:35;;;;;;;7.65;2.90;;;;;;;3.70;100.00;100214.56;4805774;29;20042;-81
2021/05/27 04:52:39;;;;;;;3.47;1.63;;;;;;;3.79;100.00;100206.50;4805738;29;20057;-81
2021/05/27 04:55:43;;;;;;;10.57;2.65;;;;;;;3.90;100.00;100218.13;4805755;29;20050;-81
2021/05/27 04:58:47;;;;;;;6.80;2.78;;;;;;;4.07;100.00;100221.75;4794595;29;20042;-81
2021/05/27 05:01:50;;;;;;;7.15;2.65;;;;;;;4.22;100.00;100218.28;4805789;29;20058;-81
2021/05/27 05:04:54;;;;;;;2.75;2.35;;;;;;;4.42;100.00;100229.31;4794587;29;20057;-80
2021/05/27 05:07:58;;;;;;;7.07;2.45;;;;;;;4.58;100.00;100219.16;4816293;29;20522;-81
2021/05/27 05:11:01;;;;;;;14.00;3.33;;;;;;;4.78;100.00;100221.09;4823774;29;20053;-80
2021/05/27 05:14:05;;;;;;;11.95;2.40;;;;;;;4.94;100.00;100207.31;4814837;29;20061;-80
2021/05/27 05:17:08;;;;;;;4.55;3.25;;;;;;;5.07;100.00;100210.97;4827331;29;20049;-80
2021/05/27 05:20:12;;;;;;;8.90;3.42;;;;;;;5.13;100.00;100212.03;4827883;29;20058;-80
2021/05/27 05:23:15;;;;;;;4.90;2.58;;;;;;;5.18;100.00;100217.00;4829266;29;20519;-80
2021/05/27 05:26:19;;;;;;;5.88;2.78;;;;;;;5.15;100.00;100212.38;4828162;29;20045;-80
2021/05/27 05:29:22;;;;;;;3.05;2.42;;;;;;;5.17;100.00;100221.00;4822828;29;20066;-80
2021/05/27 05:32:26;;;;;;;8.63;3.42;;;;;;;5.19;100.00;100218.59;4802686;29;20050;-79
2021/05/27 05:35:29;;;;;;;6.82;3.65;;;;;;;5.21;100.00;100222.47;4798311;29;20050;-79
2021/05/27 05:38:33;;;;;;;9.38;3.58;;;;;;;5.21;100.00;100222.47;4785075;30;20046;-79
2021/05/27 05:41:38;;;;;;;7.38;2.78;;;;;;;5.26;100.00;100229.47;4806019;29;20050;-79
2021/05/27 05:44:42;;;;;;;4.20;2.55;;;;;;;5.37;100.00;100230.75;4803059;29;20042;-80
2021/05/27 05:47:50;;;;;;;4.88;2.60;;;;;;;5.51;100.00;100229.63;4799074;29;20042;-80
2021/05/27 05:50:57;;;;;;;3.97;2.10;;;;;;;5.62;100.00;100230.16;4809287;29;20053;-79
2021/05/27 05:54:00;;;;;;;3.83;2.30;;;;;;;5.71;100.00;100235.06;4808658;29;20049;-79
2021/05/27 05:57:04;;;;;;;6.75;2.25;;;;;;;5.85;100.00;100234.72;4807059;29;20046;-79
2021/05/27 06:00:08;;;;;;;5.63;3.00;;;;;;;5.98;100.00;100235.56;4792111;30;20050;-79
2021/05/27 06:03:12;;;;;;;11.80;3.65;;;;;;;6.11;100.00;100244.69;4790725;30;20046;-79
2021/05/27 06:06:16;;;;;;;16.15;4.60;;;;;;;6.25;100.00;100232.47;4794460;29;20535;-79
2021/05/27 06:09:20;;;;;;;11.40;3.60;;;;;;;6.29;100.00;100236.69;4827361;29;20082;-78
2021/05/27 06:12:23;;;;;;;7.75;4.07;;;;;;;6.35;100.00;100242.47;4826096;29;20388;-78
2021/05/27 06:15:28;;;;;;;6.82;2.35;;;;;;;6.43;100.00;100241.06;4826288;29;20106;-78
2021/05/27 06:18:31;;;;;;;3.97;2.50;;;;;;;6.51;100.00;100247.94;4826085;29;20391;-78
2021/05/27 06:21:35;;;;;;;5.00;2.58;;;;;;;6.58;100.00;100242.97;4825885;29;20057;-79
2021/05/27 06:24:38;;;;;;;6.88;2.75;;;;;;;6.64;100.00;100248.75;4825193;29;20049;-78
2021/05/27 06:27:42;;;;;;;9.27;1.83;;;;;;;6.71;100.00;100248.56;4825934;29;20054;-78
2021/05/27 06:30:46;;;;;;;7.95;2.67;;;;;;;6.78;100.00;100243.59;4825912;29;20050;-78
2021/05/27 06:33:49;;;;;;;5.03;2.28;;;;;;;6.86;100.00;100244.91;4826094;29;20053;-78
2021/05/27 06:36:53;;;;;;;8.20;2.17;;;;;;;6.93;100.00;100243.19;4825829;29;20053;-79
2021/05/27 06:39:57;;;;;;;10.45;2.83;;;;;;;7.13;100.00;100247.28;4826888;29;20525;-79
2021/05/27 06:43:01;;;;;;;8.15;1.90;;;;;;;7.31;100.00;100241.19;4827664;29;20050;-79
2021/05/27 06:46:04;;;;;;;7.72;2.40;;;;;;;7.46;100.00;100243.06;4814937;29;20049;-79
2021/05/27 06:49:08;;;;;;;5.88;2.40;;;;;;;7.49;100.00;100242.16;4826090;29;20499;-78
2021/05/27 06:52:11;;;;;;;6.63;2.45;;;;;;;7.54;100.00;100244.38;4825752;29;20041;-79
2021/05/27 06:55:14;;;;;;;5.38;2.47;;;;;;;7.60;100.00;100236.31;4826228;29;20049;-79
2021/05/27 06:58:18;;;;;;;5.20;1.48;;;;;;;7.65;100.00;100239.28;4825899;29;20049;-79
2021/05/27 07:01:22;;;;;;;8.90;1.33;;;;;;;7.73;100.00;100247.34;4814638;29;20046;-79
2021/05/27 07:04:26;;;;;;;3.00;1.60;;;;;;;7.89;100.00;100241.66;4826088;29;20041;-79
2021/05/27 07:07:29;;;;;;;4.30;2.13;;;;;;;8.01;100.00;100254.72;4815762;29;20041;-79
2021/05/27 07:10:33;;;;;;;10.65;2.08;;;;;;;8.14;100.00;100258.97;4808037;29;20404;-79
2021/05/27 07:13:37;;;;;;;13.30;2.00;;;;;;;8.35;100.00;100254.72;4809354;29;20046;-81
2021/05/27 07:16:40;;;;;;;5.15;1.55;;;;;;;8.56;100.00;100259.50;4807000;29;20053;-79
2021/05/27 07:19:44;;;;;;;4.65;0.65;;;;;;;8.70;100.00;100261.78;4796882;29;20045;-79
2021/05/27 07:22:48;;;;;;;12.68;2.53;;;;;;;8.75;100.00;100263.97;4807301;29;20069;-81
2021/05/27 07:25:52;;;;;;;4.03;1.80;;;;;;;8.86;100.00;100258.78;4806850;29;20054;-80
2021/05/27 07:28:57;;;;;;;7.63;2.78;;;;;;;8.96;100.00;100263.19;4806606;29;20069;-81
2021/05/27 07:32:01;;;;;;;6.93;1.50;;;;;;;9.01;100.00;100259.78;4795409;29;20054;-81
2021/05/27 07:35:06;;;;;;;7.53;1.77;;;;;;;9.21;100.00;100264.22;4806555;29;20049;-81
2021/05/27 07:38:09;;;;;;;5.25;2.05;;;;;;;9.49;100.00;100265.88;4806642;29;20037;-81
2021/05/27 07:41:13;;;;;;;5.88;1.70;;;;;;;9.67;100.00;100271.50;4806750;29;20049;-81
2021/05/27 07:44:16;;;;;;;7.88;1.90;;;;;;;9.93;100.00;100261.66;4795225;29;20499;-82
2021/05/27 07:47:20;;;;;;;4.28;1.08;;;;;;;10.07;100.00;100266.63;4797211;29;20046;-80
2021/05/27 07:50:23;;;;;;;3.92;1.08;;;;;;;10.22;100.00;100272.41;4809397;29;20065;-81
2021/05/27 07:53:29;;;;;;;2.63;1.45;;;;;;;10.34;100.00;100263.91;4795032;29;20508;-81
2021/05/27 07:56:33;;;;;;;6.22;1.67;;;;;;;10.48;100.00;100268.84;4795050;29;20396;-82
2021/05/27 07:59:37;;;;;;;3.25;1.48;;;;;;;10.65;100.00;100267.28;4806712;29;20495;-83
2021/05/27 08:02:40;;;;;;;4.13;0.88;;;;;;;10.77;100.00;100257.19;4807544;29;20046;-82
2021/05/27 08:05:44;;;;;;;4.93;1.15;;;;;;;11.00;100.00;100253.00;4806780;29;20045;-81
2021/05/27 08:08:47;;;;;;;5.05;2.20;;;;;;;11.16;100.00;100255.41;4789238;30;20047;-81
2021/05/27 08:11:51;;;;;;;1.45;1.15;;;;;;;11.47;100.00;100255.91;4778416;30;20046;-82
2021/05/27 08:14:55;;;;;;;3.95;1.10;;;;;;;11.67;100.00;100247.78;4795077;30;20042;-82
2021/05/27 08:17:58;;;;;;;4.70;0.68;;;;;;;11.96;100.00;100239.53;4794386;30;20051;-80
2021/05/27 08:21:02;;;;;;;0.50;0.50;;;;;;;12.20;100.00;100245.09;4779852;29;20050;-81
2021/05/27 08:24:07;;;;;;;1.95;0.88;;;;;;;12.40;100.00;100247.25;4788104;30;20066;-80
2021/05/27 08:27:11;;;;;;;1.15;0.60;;;;;;;12.60;100.00;100248.16;4787476;30;20060;-81
2021/05/27 08:30:14;;;;;;;4.00;1.67;;;;;;;12.85;100.00;100246.81;4787974;30;20389;-80
2021/05/27 08:33:18;;;;;;;2.08;1.25;;;;;;;13.02;100.00;100239.50;4788084;30;20057;-81
2021/05/27 08:36:21;;;;;;;3.33;0.80;;;;;;;13.18;100.00;100241.84;4787910;30;20046;-80
2021/05/27 08:39:24;;;;;;;1.05;0.77;;;;;;;13.40;100.00;100244.22;4787741;30;20042;-78
2021/05/27 08:42:28;;;;;;;2.00;0.80;;;;;;;13.69;100.00;100242.09;4788122;30;20066;-79
2021/05/27 08:45:37;;;;;;;1.67;0.73;;;;;;;13.95;100.00;100245.00;4787644;30;20042;-79
2021/05/27 08:48:44;;;;;;;1.52;0.40;;;;;;;14.22;100.00;100243.81;4789649;29;20058;-80
2021/05/27 08:51:47;;;;;;;1.20;0.65;;;;;;;14.16;100.00;100257.00;4780706;30;20074;-81
2021/05/27 08:54:50;;;;;;;3.78;0.85;;;;;;;14.18;100.00;100254.47;4790700;30;20050;-77
2021/05/27 08:57:54;;;;;;;2.08;0.13;;;;;;;14.22;100.00;100255.03;4791581;30;20058;-84
2021/05/27 09:00:57;;;;;;;2.58;0.73;;;;;;;14.46;100.00;100258.41;4791399;30;20500;-80
2021/05/27 09:04:02;;;;;;;1.23;0.35;;;;;;;14.78;100.00;100259.22;4792753;30;20050;-80
2021/05/27 09:07:06;;;;;;;0.65;0.20;;;;;;;14.97;100.00;100255.59;4807874;29;20045;-80
2021/05/27 09:10:10;;;;;;;0.50;0.40;;;;;;;15.12;100.00;100264.66;4816190;29;20065;-82
2021/05/27 09:13:17;;;;;;;1.25;0.43;;;;;;;15.07;100.00;100262.56;4827365;29;20065;-82
2021/05/27 09:16:20;;;;;;;2.05;0.80;;;;;;;14.95;100.00;100265.78;4827174;29;20049;-82
2021/05/27 09:19:24;;;;;;;0.50;0.20;;;;;;;14.73;100.00;100265.53;4831183;29;20049;-81
2021/05/27 09:22:27;;;;;;;4.03;0.82;;;;;;;14.56;100.00;100264.59;4831486;29;20057;-82
2021/05/27 09:25:30;;;;;;;3.05;0.20;;;;;;;14.48;100.00;100269.88;4827119;29;20045;-81
2021/05/27 09:33:09;;;;;;;0.57;0.30;;;;;;;14.49;100.00;100277.00;4827746;29;20381;-82
2021/05/27 09:36:14;;;;;;;0.30;0.30;;;;;;;14.50;100.00;100270.16;4827117;29;20499;-81
2021/05/27 09:39:18;;;;;;;0.47;0.30;;;;;;;14.52;100.00;100267.63;4826721;29;20049;-80
2021/05/27 09:42:22;;;;;;;1.98;0.60;;;;;;;14.52;100.00;100270.44;4815579;29;20053;-81
2021/05/27 09:45:27;;;;;;;0.20;0.15;;;;;;;14.53;100.00;100266.34;4815412;29;20045;-81
2021/05/27 09:48:31;;;;;;;1.38;0.20;;;;;;;14.53;100.00;100274.75;4815844;29;20053;-82
2021/05/27 09:51:36;;;;;;;1.83;0.15;;;;;;;14.69;100.00;100274.19;4826533;29;20073;-81
2021/05/27 09:54:53;;;;;;;1.50;0.40;;;;;;;14.93;100.00;100280.28;4826565;29;20368;-80
2021/05/27 10:21:01;;;;;;;3.45;0.70;;;;;;;14.86;100.00;100303.16;4812675;29;20050;-80
2021/05/27 10:24:07;;;;;;;0.50;0.20;;;;;;;14.86;100.00;100294.75;4812852;29;20054;-80
2021/05/27 10:27:10;;;;;;;4.47;0.65;;;;;;;14.95;100.00;100305.81;4808298;29;20404;-77
2021/05/27 10:30:15;;;;;;;2.88;0.43;;;;;;;15.15;100.00;100299.38;4807875;29;20058;-78
2021/05/27 10:33:20;;;;;;;0.65;0.40;;;;;;;15.27;100.00;100303.06;4807835;29;20045;-78
2021/05/27 10:36:42;;;;;;;1.33;0.40;;;;;;;15.25;100.00;100300.72;4808004;29;20046;-77
2021/05/27 10:39:46;;;;;;;2.10;0.52;;;;;;;15.24;100.00;100309.66;4807903;29;20046;-77
2021/05/27 10:42:55;;;;;;;2.38;0.52;;;;;;;15.14;100.00;100306.22;4808073;29;20053;-78
2021/05/27 10:45:59;;;;;;;0.63;0.30;;;;;;;15.02;100.00;100299.00;4807771;29;20118;-79
2021/05/27 10:49:02;;;;;;;1.10;0.40;;;;;;;15.18;100.00;100301.94;4807817;29;20067;-78
2021/05/27 10:52:24;;;;;;;1.52;0.25;;;;;;;15.39;100.00;100304.69;4807654;29;20049;-78
2021/05/27 10:55:52;;;;;;;0.98;0.22;;;;;;;15.37;100.00;100296.00;4807713;29;20066;-77
2021/05/27 10:58:55;;;;;;;0.75;0.50;;;;;;;15.51;100.00;100297.91;4796292;29;20050;-78
2021/05/27 11:02:00;;;;;;;0.32;0.20;;;;;;;15.85;100.00;100291.28;4807519;29;20389;-78
2021/05/27 11:05:17;;;;;;;0.60;0.40;;;;;;;16.05;100.00;100293.94;4796163;29;20114;-79
2021/05/27 11:08:21;;;;;;;3.70;0.60;;;;;;;16.04;100.00;100297.25;4807850;29;20069;-82
2021/05/27 11:11:46;;;;;;;1.40;0.40;;;;;;;15.96;100.00;100301.81;4807074;29;20380;-81
2021/05/27 11:14:52;;;;;;;1.92;0.30;;;;;;;15.82;100.00;100297.88;4807708;29;20049;-81
2021/05/27 11:18:07;;;;;;;6.95;1.10;;;;;;;15.90;100.00;100304.56;4807631;29;20063;-82
2021/05/27 11:21:34;;;;;;;2.67;0.40;;;;;;;15.90;100.00;100296.91;4797703;29;20054;-82
2021/05/27 11:24:40;;;;;;;0.43;0.20;;;;;;;15.66;100.00;100301.34;4808363;29;20381;-82
2021/05/27 11:28:04;;;;;;;0.10;0.03;;;;;;;15.52;100.00;100300.25;4808532;29;20042;-82
2021/05/27 11:31:08;;;;;;;1.17;0.60;;;;;;;15.39;100.00;100301.88;4805770;29;20058;-78
2021/05/27 11:34:25;;;;;;;2.17;0.98;;;;;;;15.47;100.00;100302.97;4807425;29;20049;-84
2021/05/27 11:37:37;;;;;;;0.95;0.45;;;;;;;15.80;100.00;100286.38;4796368;29;20065;-81
2021/05/27 11:40:46;;;;;;;0.82;0.22;;;;;;;16.55;100.00;100292.16;4807042;29;20067;-81
2021/05/27 11:43:53;;;;;;;1.52;0.30;;;;;;;17.23;100.00;100299.44;4806048;29;20042;-81
2021/05/27 11:46:58;;;;;;;3.28;0.25;;;;;;;17.59;100.00;100287.19;4806866;29;20045;-77
2021/05/27 11:50:13;;;;;;;1.65;0.22;;;;;;;17.85;100.00;100287.66;4806405;29;20062;-80
2021/05/27 11:53:21;;;;;;;1.23;0.20;;;;;;;17.61;100.00;100284.63;4795102;29;20393;-78
2021/05/27 11:56:42;;;;;;;10.20;0.52;;;;;;;17.81;100.00;100286.38;4806456;29;20050;-78
2021/05/27 11:59:58;;;;;;;0.55;0.20;;;;;;;17.80;100.00;100288.44;4788759;30;20039;-78
2021/05/27 12:03:03;;;;;;;0.60;0.20;;;;;;;17.61;100.00;100281.81;4790448;30;20054;-77
2021/05/27 12:06:06;;;;;;;0.70;0.10;;;;;;;17.54;100.00;100281.56;4808853;29;20049;-80
2021/05/27 12:09:12;;;;;;;1.30;0.17;;;;;;;18.07;100.00;100281.97;4825357;29;20476;-78
2021/05/27 12:12:26;;;;;;;0.80;0.15;;;;;;;18.51;100.00;100280.28;4813639;29;20101;-76
2021/05/27 12:15:31;;;;;;;0.30;0.13;;;;;;;18.64;100.00;100289.72;4825418;29;20057;-80
2021/05/27 12:18:34;;;;;;;0.10;0.10;;;;;;;18.36;100.00;100286.22;4826473;29;20054;-80
2021/05/27 12:21:50;;;;;;;0.32;0.10;;;;;;;18.17;100.00;100279.63;4824322;29;20054;-78
2021/05/27 12:25:08;;;;;;;0.30;0.10;;;;;;;18.32;100.00;100282.16;4825093;29;20061;-79
2021/05/27 12:28:13;;;;;;;0.43;0.13;;;;;;;18.64;100.00;100283.31;4824622;29;20053;-79
2021/05/27 12:31:17;;;;;;;1.13;0.22;;;;;;;18.36;100.00;100285.47;4824573;29;20388;-80
2021/05/27 12:34:21;;;;;;;3.70;0.25;;;;;;;18.68;100.00;100280.97;4824412;29;20384;-77
2021/05/27 12:37:39;;;;;;;1.27;0.20;;;;;;;19.17;100.00;100279.88;4824855;29;20061;-79
2021/05/27 12:40:47;;;;;;;2.67;0.30;;;;;;;19.20;100.00;100278.06;4824825;29;20503;-83
2021/05/27 12:43:53;;;;;;;2.25;0.63;;;;;;;18.71;100.00;100282.75;4824396;29;20057;-86
2021/05/27 12:46:57;;;;;;;0.17;0.10;;;;;;;18.77;100.00;100277.84;4824342;29;20046;-79
2021/05/27 12:50:00;;;;;;;1.20;0.00;;;;;;;19.23;100.00;100268.56;4824654;29;20065;-78
2021/05/27 12:53:05;;;;;;;1.20;0.20;;;;;;;19.47;100.00;100275.03;4824186;29;20046;-78
2021/05/27 12:56:12;;;;;;;0.63;0.30;;;;;;;19.83;100.00;100281.38;4812810;29;20073;-78
2021/05/27 12:59:17;;;;;;;2.88;0.28;;;;;;;19.84;100.00;100282.16;4824147;29;20106;-77
2021/05/27 13:02:24;;;;;;;0.98;0.20;;;;;;;19.50;100.00;100279.66;4824083;29;20037;-77
2021/05/27 13:05:27;;;;;;;2.42;0.32;;;;;;;18.70;100.00;100282.00;4812647;29;20049;-78
2021/05/27 13:08:32;;;;;;;2.45;0.40;;;;;;;18.37;100.00;100286.97;4788175;30;20054;-77
2021/05/27 13:11:40;;;;;;;2.05;0.38;;;;;;;18.18;100.00;100281.94;4787640;30;20046;-78
2021/05/27 13:14:59;;;;;;;3.13;0.40;;;;;;;18.81;100.00;100286.81;4787788;30;20042;-80
2021/05/27 13:18:08;;;;;;;1.00;0.17;;;;;;;19.42;100.00;100272.28;4791389;30;20042;-81
2021/05/27 13:21:12;;;;;;;0.73;0.20;;;;;;;19.73;100.00;100282.28;4789204;29;20054;-79
2021/05/27 13:24:26;;;;;;;1.95;0.20;;;;;;;19.84;100.00;100274.44;4787846;30;20049;-84
2021/05/27 13:27:39;;;;;;;1.02;0.43;;;;;;;19.87;100.00;100272.59;4777242;30;20385;-83
2021/05/27 13:30:43;;;;;;;0.40;0.15;;;;;;;19.36;100.00;100275.13;4789175;30;20115;-84
2021/05/27 13:33:55;;;;;;;1.13;0.52;;;;;;;19.17;100.00;100274.22;4790597;29;20057;-83
2021/05/27 13:37:03;;;;;;;1.27;0.30;;;;;;;19.57;100.00;100272.66;4780898;30;20062;-86
2021/05/27 13:40:13;;;;;;;0.32;0.13;;;;;;;19.92;100.00;100275.38;4792906;30;20042;-84
2021/05/27 13:43:16;;;;;;;0.10;0.10;;;;;;;20.09;100.00;100278.03;4792434;30;20050;-83
2021/05/27 13:46:19;;;;;;;1.80;0.10;;;;;;;20.21;100.00;100285.09;4793198;30;20511;-83
2021/05/27 13:49:23;;;;;;;2.78;0.47;;;;;;;20.11;94.27;100281.09;4791784;30;20060;-84
2021/05/27 13:52:27;;;;;;;0.35;0.20;;;;;;;20.05;95.21;100277.56;4795009;30;20394;-84
2021/05/27 13:55:49;;;;;;;0.57;0.22;;;;;;;20.21;91.84;100285.09;4803944;29;20069;-84
2021/05/27 13:58:53;;;;;;;0.35;0.22;;;;;;;19.68;94.18;100284.59;4814450;29;20061;-84
2021/05/27 14:01:57;;;;;;;1.92;0.20;;;;;;;19.72;89.89;100280.72;4809577;29;20038;-83
2021/05/27 14:05:04;;;;;;;0.90;0.32;;;;;;;19.64;87.96;100278.47;4806098;29;20034;-83
2021/05/27 14:08:08;;;;;;;0.95;0.17;;;;;;;19.47;90.39;100275.03;4836661;29;20045;-83
2021/05/27 14:11:12;;;;;;;0.15;0.03;;;;;;;19.47;95.49;100279.91;4832549;29;20045;-84
2021/05/27 14:14:15;;;;;;;0.15;0.10;;;;;;;19.52;93.67;100277.06;4818587;29;20510;-83
2021/05/27 14:17:19;;;;;;;0.75;0.20;;;;;;;19.58;92.38;100268.50;4828884;29;20045;-83
2021/05/27 14:20:23;;;;;;;0.10;0.00;;;;;;;19.63;94.42;100270.53;4828569;29;20400;-83
2021/05/27 14:23:27;;;;;;;0.10;0.00;;;;;;;19.77;99.13;100271.44;4829151;29;20057;-83
2021/05/27 14:26:30;;;;;;;1.17;0.13;;;;;;;19.48;98.28;100270.94;4816614;29;20045;-84
2021/05/27 14:29:34;;;;;;;2.50;0.55;;;;;;;19.25;96.35;100258.25;4828276;29;20384;-83
2021/05/27 14:32:38;;;;;;;2.00;0.45;;;;;;;19.45;94.46;100265.56;4819367;29;20053;-83
2021/05/27 14:35:43;;;;;;;0.10;0.10;;;;;;;19.58;94.05;100265.69;4832995;29;20044;-83
2021/05/27 14:38:47;;;;;;;0.77;0.00;;;;;;;19.95;99.05;100267.88;4828247;29;20045;-82
2021/05/27 14:41:52;;;;;;;0.30;0.10;;;;;;;19.95;95.38;100265.06;4827744;29;20049;-83
2021/05/27 14:44:55;;;;;;;0.20;0.10;;;;;;;19.77;95.71;100260.91;4826306;29;20376;-83
2021/05/27 14:47:59;;;;;;;0.28;0.10;;;;;;;19.15;96.52;100259.88;4826247;29;20049;-83
2021/05/27 14:51:02;;;;;;;7.05;0.10;;;;;;;18.61;96.88;100256.13;4827025;29;20225;-84